createdAt,value
2023-02-19T00:02:46.563Z,46.98
2023-02-19T00:05:36.945Z,47.37
2023-02-19T00:08:25.818Z,47.65
2023-02-19T00:11:19.453Z,47.85
2023-02-19T00:14:09.383Z,48.27
2023-02-19T00:17:02.230Z,47.88
2023-02-19T00:19:53.142Z,48.47
2023-02-19T00:22:42.114Z,48.37
2023-02-19T00:25:30.809Z,48.23
2023-02-19T00:28:22.118Z,48.59
2023-02-19T00:31:14.884Z,48.56
2023-02-19T00:34:06.703Z,48.52
2023-02-19T00:36:56.963Z,48.34
2023-02-19T00:39:46.189Z,48.60
2023-02-19T00:42:34.880Z,48.50
2023-02-19T00:45:25.228Z,48.43
2023-02-19T00:48:14.007Z,48.31
2023-02-19T00:51:02.898Z,48.73
2023-02-19T00:53:53.088Z,48.50
2023-02-19T00:56:42.224Z,48.35
2023-02-19T00:59:30.905Z,48.51
2023-02-19T01:02:19.579Z,48.25
2023-02-19T01:05:08.487Z,48.68
2023-02-19T01:07:57.205Z,48.34
2023-02-19T01:10:47.428Z,48.32
2023-02-19T01:13:36.458Z,48.52
2023-02-19T01:16:25.634Z,48.96
2023-02-19T01:19:14.534Z,48.69
2023-02-19T01:22:03.199Z,48.98
2023-02-19T01:24:51.804Z,48.58
2023-02-19T01:27:41.972Z,48.46
2023-02-19T01:30:30.690Z,48.70
2023-02-19T01:33:19.377Z,48.73
2023-02-19T01:36:09.077Z,48.75
2023-02-19T01:38:57.708Z,48.66
2023-02-19T01:41:46.383Z,48.75
2023-02-19T01:45:26.722Z,48.99
2023-02-19T01:48:18.975Z,48.72
2023-02-19T01:51:09.729Z,48.65
2023-02-19T01:54:01.035Z,48.83
2023-02-19T01:56:50.500Z,49.02
2023-02-19T01:59:39.434Z,48.79
2023-02-19T02:02:28.532Z,48.82
2023-02-19T02:05:23.728Z,48.62
2023-02-19T02:08:45.058Z,48.50
2023-02-19T02:11:33.758Z,48.64
2023-02-19T02:14:25.089Z,48.54
2023-02-19T02:17:20.122Z,48.49
2023-02-19T02:20:33.542Z,48.28
2023-02-19T02:23:29.055Z,48.35
2023-02-19T02:26:27.777Z,48.34
2023-02-19T02:29:53.811Z,48.70
2023-02-19T02:32:53.419Z,48.75
2023-02-19T02:35:45.906Z,48.71
2023-02-19T02:38:37.192Z,48.92
2023-02-19T02:41:26.741Z,48.37
2023-02-19T02:44:15.370Z,48.53
2023-02-19T02:47:06.280Z,48.57
2023-02-19T02:50:06.076Z,48.84
2023-02-19T02:53:15.928Z,48.74
2023-02-19T02:56:05.633Z,49.00
2023-02-19T02:58:55.064Z,48.86
2023-02-19T03:02:03.133Z,48.79
2023-02-19T03:05:14.988Z,48.96
2023-02-19T03:08:10.896Z,48.86
2023-02-19T03:11:23.403Z,48.76
2023-02-19T03:14:33.604Z,49.05
2023-02-19T03:17:43.575Z,48.70
2023-02-19T03:20:36.302Z,49.13
2023-02-19T03:23:46.365Z,48.90
2023-02-19T03:26:34.522Z,48.63
2023-02-19T03:29:27.063Z,48.85
2023-02-19T03:32:20.162Z,48.90
2023-02-19T03:35:11.678Z,48.93
2023-02-19T03:38:05.593Z,48.71
2023-02-19T03:40:57.757Z,48.76
2023-02-19T03:43:51.990Z,48.69
2023-02-19T03:46:45.915Z,49.14
2023-02-19T03:49:37.070Z,49.14
2023-02-19T03:52:31.725Z,49.27
2023-02-19T03:55:27.259Z,48.79
2023-02-19T03:58:20.079Z,48.92
2023-02-19T04:01:11.364Z,48.98
2023-02-19T04:04:05.457Z,48.58
2023-02-19T04:06:57.042Z,48.64
2023-02-19T04:09:47.981Z,48.78
2023-02-19T04:12:39.420Z,48.84
2023-02-19T04:15:31.045Z,48.88
2023-02-19T04:18:21.481Z,48.71
2023-02-19T04:21:11.275Z,48.96
2023-02-19T04:24:01.240Z,48.67
2023-02-19T04:26:50.134Z,49.03
2023-02-19T04:29:40.169Z,49.19
2023-02-19T04:32:28.906Z,48.62
2023-02-19T04:35:17.673Z,49.10
2023-02-19T04:38:06.370Z,49.06
2023-02-19T04:40:55.033Z,49.18
2023-02-19T04:43:43.636Z,49.11
2023-02-19T04:46:33.685Z,49.02
2023-02-19T04:49:22.372Z,48.84
2023-02-19T04:52:11.262Z,48.69
2023-02-19T04:54:59.881Z,49.10
2023-02-19T04:57:48.663Z,48.85
2023-02-19T05:00:37.347Z,48.82
2023-02-19T05:03:27.549Z,49.12
2023-02-19T05:06:16.218Z,49.01
2023-02-19T05:09:05.398Z,49.02
2023-02-19T05:11:54.110Z,48.99
2023-02-19T05:14:42.717Z,48.78
2023-02-19T05:17:31.479Z,48.92
2023-02-19T05:20:22.987Z,48.76
2023-02-19T05:23:11.806Z,49.04
2023-02-19T05:26:00.668Z,48.91
2023-02-19T05:28:51.480Z,48.90
2023-02-19T05:31:40.240Z,49.06
2023-02-19T05:34:29.353Z,48.79
2023-02-19T05:37:19.573Z,49.11
2023-02-19T05:40:08.524Z,49.03
2023-02-19T05:42:57.277Z,49.30
2023-02-19T05:45:46.074Z,49.06
2023-02-19T05:48:35.136Z,49.16
2023-02-19T05:51:25.289Z,48.89
2023-02-19T05:54:15.406Z,49.38
2023-02-19T05:57:04.321Z,49.16
2023-02-19T05:59:52.933Z,49.55
2023-02-19T06:02:41.685Z,49.33
2023-02-19T06:05:30.342Z,49.24
2023-02-19T06:08:19.082Z,49.44
2023-02-19T06:11:09.355Z,49.42
2023-02-19T06:13:58.290Z,49.55
2023-02-19T06:16:47.031Z,49.19
2023-02-19T06:19:35.672Z,49.30
2023-02-19T06:22:24.382Z,49.16
2023-02-19T06:25:16.120Z,49.45
2023-02-19T06:28:06.659Z,48.88
2023-02-19T06:30:55.234Z,49.24
2023-02-19T06:33:44.052Z,49.34
2023-02-19T06:36:32.792Z,49.33
2023-02-19T06:39:21.495Z,49.09
2023-02-19T06:42:10.148Z,49.16
2023-02-19T06:45:01.921Z,48.76
2023-02-19T06:47:50.545Z,49.07
2023-02-19T06:50:39.282Z,49.34
2023-02-19T06:53:28.127Z,49.06
2023-02-19T06:56:25.656Z,49.35
2023-02-19T06:59:16.887Z,48.98
2023-02-19T07:02:07.136Z,49.46
2023-02-19T07:04:55.768Z,48.79
2023-02-19T07:07:47.048Z,49.06
2023-02-19T07:10:35.757Z,49.33
2023-02-19T07:13:24.421Z,49.11
2023-02-19T07:16:13.991Z,49.38
2023-02-19T07:19:04.278Z,49.42
2023-02-19T07:21:53.226Z,49.00
2023-02-19T07:24:41.852Z,49.08
2023-02-19T07:27:30.542Z,49.20
2023-02-19T07:30:19.431Z,49.28
2023-02-19T07:33:10.467Z,49.60
2023-02-19T07:36:00.762Z,49.34
2023-02-19T07:38:49.551Z,49.00
2023-02-19T07:41:38.166Z,49.17
2023-02-19T07:44:27.041Z,49.32
2023-02-19T07:47:15.694Z,49.00
2023-02-19T07:50:04.347Z,48.80
2023-02-19T07:52:54.396Z,49.04
2023-02-19T07:55:43.060Z,48.93
2023-02-19T07:58:32.181Z,49.34
2023-02-19T08:01:44.265Z,49.24
2023-02-19T08:04:31.926Z,49.07
2023-02-19T08:07:20.731Z,49.14
2023-02-19T08:10:28.761Z,49.06
2023-02-19T08:13:22.676Z,48.94
2023-02-19T08:16:20.296Z,47.99
2023-02-19T08:19:13.110Z,47.70
2023-02-19T08:22:01.799Z,47.26
2023-02-19T08:24:50.529Z,47.25
2023-02-19T08:27:40.591Z,42.66
2023-02-19T08:30:30.010Z,41.47
2023-02-19T08:33:21.237Z,40.44
2023-02-19T08:36:12.107Z,39.73
2023-02-19T08:39:00.825Z,39.62
2023-02-19T08:41:49.523Z,38.11
2023-02-19T08:44:39.950Z,38.74
2023-02-19T08:47:28.881Z,41.65
2023-02-19T08:50:17.540Z,42.25
2023-02-19T08:53:07.179Z,42.64
2023-02-19T08:55:55.778Z,42.89
2023-02-19T08:58:45.205Z,42.89
2023-02-19T09:01:35.540Z,42.56
2023-02-19T09:04:24.255Z,42.67
2023-02-19T09:07:14.064Z,42.42
2023-02-19T09:10:03.008Z,42.48
2023-02-19T09:12:51.720Z,42.51
2023-02-19T09:15:40.402Z,42.69
2023-02-19T09:18:30.506Z,43.00
2023-02-19T09:21:19.208Z,43.55
2023-02-19T09:24:10.482Z,43.98
2023-02-19T09:26:59.608Z,43.74
2023-02-19T09:29:48.506Z,43.25
2023-02-19T09:32:37.587Z,42.53
2023-02-19T09:35:27.815Z,42.40
2023-02-19T09:38:16.500Z,42.00
2023-02-19T09:41:08.921Z,41.84
2023-02-19T09:43:57.987Z,41.94
2023-02-19T09:46:49.356Z,41.76
2023-02-19T09:49:40.463Z,41.75
2023-02-19T09:52:34.879Z,41.70
2023-02-19T09:55:31.123Z,41.23
2023-02-19T09:58:27.066Z,41.41
2023-02-19T10:01:16.355Z,41.19
2023-02-19T10:04:06.368Z,41.25
2023-02-19T10:06:59.514Z,41.87
2023-02-19T10:09:53.962Z,41.29
2023-02-19T10:12:47.861Z,41.04
2023-02-19T10:15:40.047Z,40.93
2023-02-19T10:18:32.852Z,42.24
2023-02-19T10:21:24.980Z,41.04
2023-02-19T10:24:19.650Z,42.51
2023-02-19T10:27:16.566Z,42.77
2023-02-19T10:30:07.445Z,42.71
2023-02-19T10:33:03.599Z,43.14
2023-02-19T10:35:57.635Z,43.34
2023-02-19T10:38:50.908Z,43.11
2023-02-19T10:41:44.312Z,43.40
2023-02-19T10:44:38.204Z,43.41
2023-02-19T10:47:28.096Z,43.51
2023-02-19T10:50:23.365Z,42.82
2023-02-19T10:53:24.090Z,43.83
2023-02-19T10:56:15.494Z,43.32
2023-02-19T10:59:27.688Z,43.41
2023-02-19T11:02:20.825Z,43.39
2023-02-19T11:05:19.913Z,43.26
2023-02-19T11:08:23.072Z,43.30
2023-02-19T11:11:12.174Z,43.11
2023-02-19T11:14:03.037Z,43.20
2023-02-19T11:16:53.665Z,43.18
2023-02-19T11:19:48.583Z,42.88
2023-02-19T11:22:40.251Z,42.76
2023-02-19T11:25:29.266Z,42.50
2023-02-19T11:28:30.280Z,42.51
2023-02-19T11:31:25.739Z,42.26
2023-02-19T11:34:31.146Z,42.80
2023-02-19T11:37:22.293Z,41.94
2023-02-19T11:40:14.050Z,41.54
2023-02-19T11:43:09.080Z,41.56
2023-02-19T11:46:05.180Z,41.41
2023-02-19T11:48:55.897Z,41.24
2023-02-19T11:52:18.260Z,40.96
2023-02-19T11:55:14.948Z,41.33
2023-02-19T11:58:14.143Z,41.03
2023-02-19T12:01:09.870Z,40.90
2023-02-19T12:04:12.278Z,42.01
2023-02-19T12:07:06.465Z,42.58
2023-02-19T12:10:05.413Z,43.26
2023-02-19T12:13:03.634Z,42.21
2023-02-19T12:16:02.083Z,41.96
2023-02-19T12:19:12.217Z,42.24
2023-02-19T12:22:19.678Z,41.68
2023-02-19T12:25:34.454Z,41.37
2023-02-19T12:28:38.968Z,40.73
2023-02-19T12:31:49.168Z,40.81
2023-02-19T12:34:48.582Z,40.73
2023-02-19T12:37:44.852Z,40.53
2023-02-19T12:40:40.477Z,40.19
2023-02-19T12:43:32.283Z,40.27
2023-02-19T12:46:24.632Z,40.12
2023-02-19T12:49:15.524Z,40.31
2023-02-19T12:52:08.914Z,40.26
2023-02-19T12:55:15.237Z,40.16
2023-02-19T12:58:06.316Z,37.85
2023-02-19T13:00:59.977Z,36.87
2023-02-19T13:03:53.807Z,36.51
2023-02-19T13:06:45.253Z,37.63
2023-02-19T13:09:37.985Z,38.70
2023-02-19T13:12:28.031Z,38.74
2023-02-19T13:15:19.315Z,38.80
2023-02-19T13:18:15.421Z,38.97
2023-02-19T13:21:06.157Z,38.81
2023-02-19T13:23:59.689Z,38.63
2023-02-19T13:27:05.886Z,39.08
2023-02-19T13:30:04.774Z,37.80
2023-02-19T13:33:00.623Z,37.82
2023-02-19T13:36:13.109Z,37.54
2023-02-19T13:39:02.009Z,37.70
2023-02-19T13:41:55.205Z,38.85
2023-02-19T13:44:52.432Z,38.59
2023-02-19T13:47:50.708Z,38.69
2023-02-19T13:50:40.146Z,38.41
2023-02-19T13:53:57.573Z,38.03
2023-02-19T13:56:46.229Z,37.95
2023-02-19T13:59:38.881Z,37.81
2023-02-19T14:02:35.178Z,38.08
2023-02-19T14:06:00.790Z,37.61
2023-02-19T14:08:55.984Z,37.88
2023-02-19T14:12:05.266Z,38.16
2023-02-19T14:14:54.730Z,38.20
2023-02-19T14:17:45.773Z,38.41
2023-02-19T14:20:46.316Z,38.30
2023-02-19T14:23:35.175Z,38.27
2023-02-19T14:26:25.774Z,38.18
2023-02-19T14:29:16.528Z,38.03
2023-02-19T14:32:07.270Z,37.93
2023-02-19T14:34:58.073Z,37.83
2023-02-19T14:37:47.679Z,38.00
2023-02-19T14:40:41.540Z,37.76
2023-02-19T14:43:31.792Z,37.37
2023-02-19T14:46:26.573Z,37.61
2023-02-19T14:49:17.680Z,37.55
2023-02-19T14:52:09.027Z,37.52
2023-02-19T14:55:01.227Z,37.62
2023-02-19T14:57:50.965Z,37.78
2023-02-19T15:00:42.951Z,37.80
2023-02-19T15:03:34.552Z,37.52
2023-02-19T15:06:24.397Z,37.52
2023-02-19T15:09:14.504Z,38.05
2023-02-19T15:12:04.073Z,38.79
2023-02-19T15:14:55.340Z,39.12
2023-02-19T15:17:45.466Z,39.78
2023-02-19T15:20:36.024Z,39.86
2023-02-19T15:23:25.745Z,40.16
2023-02-19T15:26:24.527Z,40.35
2023-02-19T15:29:15.228Z,38.61
2023-02-19T15:32:04.153Z,37.83
2023-02-19T15:34:58.893Z,37.59
2023-02-19T15:37:47.752Z,38.51
2023-02-19T15:40:37.130Z,38.52
2023-02-19T15:43:29.645Z,38.51
2023-02-19T15:46:22.376Z,39.44
2023-02-19T15:49:14.610Z,38.93
2023-02-19T15:52:07.566Z,38.68
2023-02-19T15:54:59.540Z,38.73
2023-02-19T15:57:53.556Z,38.94
2023-02-19T16:00:44.810Z,38.79
2023-02-19T16:03:34.403Z,38.99
2023-02-19T16:06:25.027Z,38.75
2023-02-19T16:09:22.391Z,39.36
2023-02-19T16:12:22.251Z,39.21
2023-02-19T16:15:15.469Z,39.59
2023-02-19T16:18:04.617Z,39.55
2023-02-19T16:20:53.653Z,39.73
2023-02-19T16:23:43.991Z,40.91
2023-02-19T16:26:41.630Z,40.93
2023-02-19T16:29:32.764Z,41.66
2023-02-19T16:32:21.777Z,41.40
2023-02-19T16:35:36.590Z,41.65
2023-02-19T16:38:25.508Z,41.72
2023-02-19T16:41:16.421Z,41.96
2023-02-19T16:44:32.536Z,42.15
2023-02-19T16:47:32.849Z,42.20
2023-02-19T16:50:24.042Z,42.32
2023-02-19T16:53:19.781Z,42.20
2023-02-19T16:56:10.428Z,42.57
2023-02-19T16:58:59.290Z,42.68
2023-02-19T17:01:49.687Z,42.79
2023-02-19T17:04:38.619Z,43.40
2023-02-19T17:07:28.019Z,43.46
2023-02-19T17:10:19.996Z,42.67
2023-02-19T17:13:08.954Z,42.45
2023-02-19T17:15:57.816Z,42.16
2023-02-19T17:18:47.917Z,41.72
2023-02-19T17:21:36.609Z,41.51
2023-02-19T17:24:25.296Z,40.96
2023-02-19T17:27:14.250Z,40.96
2023-02-19T17:30:03.179Z,40.86
2023-02-19T17:32:52.436Z,40.82
2023-02-19T17:35:44.825Z,40.33
2023-02-19T17:38:33.657Z,40.35
2023-02-19T17:41:22.370Z,40.61
2023-02-19T17:44:11.451Z,40.58
2023-02-19T17:47:00.129Z,41.60
2023-02-19T17:49:48.749Z,41.05
2023-02-19T17:52:38.808Z,41.04
2023-02-19T17:55:27.479Z,40.84
2023-02-19T17:58:16.244Z,41.02
2023-02-19T18:01:05.042Z,41.21
2023-02-19T18:03:53.872Z,41.29
2023-02-19T18:06:42.877Z,41.76
2023-02-19T18:09:32.925Z,42.04
2023-02-19T18:12:21.711Z,41.97
2023-02-19T18:15:13.184Z,41.84
2023-02-19T18:18:02.289Z,42.26
2023-02-19T18:20:51.083Z,42.78
2023-02-19T18:23:40.047Z,42.51
2023-02-19T18:26:30.163Z,42.87
2023-02-19T18:29:19.919Z,42.78
2023-02-19T18:32:08.717Z,43.46
2023-02-19T18:35:00.543Z,42.96
2023-02-19T18:37:52.628Z,43.21
2023-02-19T18:40:44.795Z,42.81
2023-02-19T18:43:37.306Z,42.94
2023-02-19T18:46:26.156Z,42.91
2023-02-19T18:49:14.966Z,42.80
2023-02-19T18:52:03.610Z,42.77
2023-02-19T18:54:53.510Z,42.28
2023-02-19T18:57:42.158Z,42.25
2023-02-19T19:00:32.135Z,42.32
2023-02-19T19:03:20.738Z,42.47
2023-02-19T19:06:09.538Z,42.40
2023-02-19T19:08:58.637Z,42.51
2023-02-19T19:11:47.622Z,42.50
2023-02-19T19:14:36.253Z,43.09
2023-02-19T19:17:26.283Z,43.09
2023-02-19T19:20:19.814Z,43.79
2023-02-19T19:23:08.655Z,43.53
2023-02-19T19:25:57.412Z,43.78
2023-02-19T19:28:46.581Z,43.91
2023-02-19T19:31:36.501Z,44.05
2023-02-19T19:34:26.648Z,44.14
2023-02-19T19:37:15.327Z,43.94
2023-02-19T19:40:05.062Z,43.95
2023-02-19T19:42:54.371Z,44.05
2023-02-19T19:45:43.112Z,43.79
2023-02-19T19:48:33.160Z,43.92
2023-02-19T19:51:23.437Z,44.07
2023-02-19T19:54:13.190Z,43.82
2023-02-19T19:57:02.030Z,43.71
2023-02-19T19:59:51.161Z,43.87
2023-02-19T20:02:40.078Z,44.64
2023-02-19T20:05:28.989Z,44.32
2023-02-19T20:08:19.513Z,44.20
2023-02-19T20:11:08.394Z,44.20
2023-02-19T20:13:57.427Z,44.12
2023-02-19T20:16:47.500Z,44.10
2023-02-19T20:19:36.191Z,44.02
2023-02-19T20:22:25.217Z,44.04
2023-02-19T20:25:16.075Z,44.04
2023-02-19T20:28:04.833Z,43.93
2023-02-19T20:30:53.595Z,44.00
2023-02-19T20:33:42.249Z,43.49
2023-02-19T20:36:32.292Z,43.79
2023-02-19T20:39:22.207Z,44.26
2023-02-19T20:42:16.553Z,44.17
2023-02-19T20:45:05.935Z,44.38
2023-02-19T20:47:54.767Z,44.53
2023-02-19T20:50:43.400Z,44.83
2023-02-19T20:53:32.929Z,45.30
2023-02-19T20:56:21.702Z,44.84
2023-02-19T20:59:12.847Z,45.05
2023-02-19T21:02:08.077Z,45.34
2023-02-19T21:04:57.443Z,45.24
2023-02-19T21:07:46.153Z,45.44
2023-02-19T21:10:34.790Z,45.42
2023-02-19T21:13:23.601Z,45.22
2023-02-19T21:16:13.928Z,45.23
2023-02-19T21:19:02.851Z,45.48
2023-02-19T21:21:51.490Z,45.54
2023-02-19T21:24:40.112Z,45.49
2023-02-19T21:27:28.749Z,45.81
2023-02-19T21:30:17.530Z,46.17
2023-02-19T21:33:07.525Z,46.00
2023-02-19T21:35:57.514Z,45.98
2023-02-19T21:38:46.099Z,46.14
2023-02-19T21:41:34.861Z,46.05
2023-02-19T21:44:23.555Z,46.12
2023-02-19T21:47:12.662Z,46.34
2023-02-19T21:50:02.749Z,46.06
2023-02-19T21:52:51.621Z,46.45
2023-02-19T21:55:42.940Z,46.27
2023-02-19T21:58:38.634Z,46.38
2023-02-19T22:01:29.048Z,46.82
2023-02-19T22:04:19.787Z,46.51
2023-02-19T22:07:09.775Z,46.47
2023-02-19T22:09:58.650Z,46.84
2023-02-19T22:12:47.384Z,46.97
2023-02-19T22:15:36.124Z,46.87
2023-02-19T22:18:24.738Z,47.06
2023-02-19T22:21:13.345Z,47.05
2023-02-19T22:24:04.485Z,46.77
2023-02-19T22:26:57.044Z,47.05
2023-02-19T22:29:45.776Z,46.58
2023-02-19T22:32:34.551Z,46.50
2023-02-19T22:35:23.384Z,46.62
2023-02-19T22:38:12.028Z,47.00
2023-02-19T22:41:02.080Z,46.99
2023-02-19T22:43:51.355Z,46.95
2023-02-19T22:46:40.001Z,46.60
2023-02-19T22:49:28.747Z,46.52
2023-02-19T22:52:17.470Z,46.99
2023-02-19T22:55:06.573Z,46.64
2023-02-19T22:57:56.569Z,46.77
2023-02-19T23:00:45.229Z,46.84
2023-02-19T23:03:33.953Z,46.96
2023-02-19T23:06:24.698Z,47.04
2023-02-19T23:09:18.556Z,47.01
2023-02-19T23:12:09.209Z,46.78
2023-02-19T23:14:59.297Z,46.76
2023-02-19T23:17:47.931Z,46.67
2023-02-19T23:20:36.670Z,46.70
2023-02-19T23:23:25.407Z,46.80
2023-02-19T23:26:15.555Z,46.86
2023-02-19T23:29:05.186Z,46.34
2023-02-19T23:31:55.541Z,46.59
2023-02-19T23:34:44.150Z,46.91
2023-02-19T23:37:33.145Z,46.78
2023-02-19T23:40:21.789Z,47.31
2023-02-19T23:43:10.391Z,46.96
2023-02-19T23:45:59.105Z,46.80
2023-02-19T23:48:49.078Z,46.97
2023-02-19T23:51:37.727Z,46.84
2023-02-19T23:54:26.389Z,47.37
2023-02-19T23:57:15.093Z,47.11
